SHT13C EGLL-EGNT
Flight info
| Callsign | SHT13C |
|---|---|
| Flight time | 0h 49m |
| Altitude | 26000 |
| Route | ULTIB T420 AKUPA UY250 RIMTO |
| Aircraft | A320/M-SDE3FGHIRWY/LB1 |
Departure
| Time | 2026-04-30 20:38 |
|---|---|
| Airport | London Heathrow Airport (EGLL) |
Arrival
| Time | 2026-04-30 21:28 |
|---|---|
| Airport | Newcastle International Airport (EGNT) |
| Time | Latitude | Longitude | Altitude | Speed | Heading |
|---|---|---|---|---|---|
| 2026-04-30 20:19 | 51.46922 | -0.48862 | 87 ft | 0 kts | 360° |
| 2026-04-30 20:31 | 51.46878 | -0.48843 | 90 ft | 3 kts | 287° |
| 2026-04-30 20:32 | 51.46876 | -0.48763 | 87 ft | 3 kts | 270° |
| 2026-04-30 20:32 | 51.46876 | -0.48706 | 87 ft | 1 kts | 270° |
| 2026-04-30 20:33 | 51.46876 | -0.48704 | 87 ft | 0 kts | 270° |
| 2026-04-30 20:36 | 51.46876 | -0.48708 | 87 ft | 2 kts | 270° |
| 2026-04-30 20:36 | 51.46785 | -0.48753 | 87 ft | 12 kts | 179° |
| 2026-04-30 20:37 | 51.46696 | -0.48750 | 88 ft | 14 kts | 179° |
| 2026-04-30 20:37 | 51.46592 | -0.48774 | 88 ft | 17 kts | 195° |
| 2026-04-30 20:37 | 51.46480 | -0.48709 | 90 ft | 20 kts | 111° |
| 2026-04-30 20:37 | 51.46473 | -0.48379 | 93 ft | 55 kts | 91° |
| 2026-04-30 20:38 | 51.46480 | -0.47400 | 86 ft | 117 kts | 89° |
| 2026-04-30 20:38 | 51.46492 | -0.45861 | 135 ft | 156 kts | 88° |
| 2026-04-30 20:38 | 51.46505 | -0.44188 | 785 ft | 153 kts | 92° |
| 2026-04-30 20:39 | 51.46878 | -0.40637 | 1540 ft | 191 kts | 62° |
| 2026-04-30 20:39 | 51.47780 | -0.38846 | 1861 ft | 216 kts | 56° |
| 2026-04-30 20:39 | 51.48783 | -0.36869 | 2231 ft | 240 kts | 57° |
| 2026-04-30 20:40 | 51.51008 | -0.32435 | 3666 ft | 263 kts | 56° |
| 2026-04-30 20:40 | 51.52167 | -0.30028 | 4551 ft | 268 kts | 62° |
| 2026-04-30 20:40 | 51.52882 | -0.27341 | 5357 ft | 271 kts | 73° |
| 2026-04-30 20:41 | 51.55449 | -0.22979 | 5997 ft | 285 kts | 21° |
| 2026-04-30 20:41 | 51.57397 | -0.22443 | 6029 ft | 287 kts | 358° |
| 2026-04-30 20:41 | 51.59375 | -0.22954 | 6291 ft | 290 kts | 348° |
| 2026-04-30 20:41 | 51.61344 | -0.23711 | 7062 ft | 292 kts | 341° |
| 2026-04-30 20:42 | 51.63178 | -0.25132 | 7908 ft | 295 kts | 328° |
| 2026-04-30 20:42 | 51.64947 | -0.26852 | 8733 ft | 299 kts | 328° |
| 2026-04-30 20:42 | 51.68575 | -0.30359 | 10331 ft | 309 kts | 328° |
| 2026-04-30 20:43 | 51.70481 | -0.32199 | 10652 ft | 331 kts | 328° |
| 2026-04-30 20:43 | 51.72515 | -0.34168 | 10958 ft | 349 kts | 328° |
| 2026-04-30 20:43 | 51.74619 | -0.36200 | 11563 ft | 356 kts | 328° |
| 2026-04-30 20:44 | 51.78924 | -0.40358 | 12858 ft | 365 kts | 328° |
| 2026-04-30 20:44 | 51.81088 | -0.42450 | 13521 ft | 370 kts | 328° |
| 2026-04-30 20:44 | 51.85542 | -0.46769 | 14181 ft | 375 kts | 328° |
| 2026-04-30 20:45 | 51.90015 | -0.51122 | 14220 ft | 375 kts | 328° |
| 2026-04-30 20:45 | 51.92246 | -0.53299 | 14229 ft | 375 kts | 328° |
| 2026-04-30 20:45 | 51.94495 | -0.55494 | 14605 ft | 378 kts | 328° |
| 2026-04-30 20:46 | 52.01323 | -0.62153 | 16491 ft | 386 kts | 329° |
| 2026-04-30 20:46 | 52.03641 | -0.64418 | 17093 ft | 390 kts | 329° |
| 2026-04-30 20:47 | 52.08321 | -0.69006 | 18304 ft | 396 kts | 328° |
| 2026-04-30 20:47 | 52.10690 | -0.71341 | 18869 ft | 400 kts | 328° |
| 2026-04-30 20:48 | 52.15484 | -0.76086 | 19952 ft | 407 kts | 328° |
| 2026-04-30 20:48 | 52.17917 | -0.78488 | 20507 ft | 411 kts | 328° |
| 2026-04-30 20:48 | 52.20370 | -0.80911 | 21034 ft | 414 kts | 328° |
| 2026-04-30 20:48 | 52.22847 | -0.83361 | 21558 ft | 418 kts | 328° |
| 2026-04-30 20:49 | 52.25342 | -0.85828 | 22061 ft | 422 kts | 328° |
| 2026-04-30 20:49 | 52.27862 | -0.88326 | 22571 ft | 425 kts | 328° |
| 2026-04-30 20:49 | 52.30398 | -0.90848 | 23111 ft | 428 kts | 328° |
| 2026-04-30 20:50 | 52.35526 | -0.95960 | 24090 ft | 435 kts | 328° |
| 2026-04-30 20:50 | 52.38120 | -0.98552 | 24526 ft | 438 kts | 328° |
| 2026-04-30 20:50 | 52.40729 | -1.01160 | 24918 ft | 442 kts | 327° |
| 2026-04-30 20:50 | 52.43363 | -1.03795 | 25274 ft | 445 kts | 327° |
| 2026-04-30 20:51 | 52.46108 | -1.06180 | 25669 ft | 449 kts | 336° |
| 2026-04-30 20:51 | 52.52158 | -1.08662 | 26135 ft | 446 kts | 357° |
| 2026-04-30 20:51 | 52.55188 | -1.08654 | 26157 ft | 428 kts | 5° |
| 2026-04-30 20:52 | 52.58161 | -1.08389 | 26155 ft | 429 kts | 5° |
| 2026-04-30 20:52 | 52.61144 | -1.08147 | 26151 ft | 430 kts | 4° |
| 2026-04-30 20:52 | 52.67113 | -1.07712 | 26154 ft | 430 kts | 4° |
| 2026-04-30 20:53 | 52.70104 | -1.07499 | 26157 ft | 430 kts | 4° |
| 2026-04-30 20:53 | 52.73090 | -1.07336 | 26163 ft | 430 kts | 0° |
| 2026-04-30 20:53 | 52.76074 | -1.07796 | 26238 ft | 431 kts | 350° |
| 2026-04-30 20:54 | 52.81940 | -1.09596 | 26247 ft | 431 kts | 350° |
| 2026-04-30 20:54 | 52.84889 | -1.10492 | 26253 ft | 431 kts | 350° |
| 2026-04-30 20:54 | 52.87837 | -1.11383 | 26253 ft | 431 kts | 350° |
| 2026-04-30 20:55 | 52.93738 | -1.13174 | 26256 ft | 431 kts | 350° |
| 2026-04-30 20:55 | 52.96685 | -1.14076 | 26252 ft | 431 kts | 350° |
| 2026-04-30 20:55 | 52.99636 | -1.14978 | 26250 ft | 431 kts | 350° |
| 2026-04-30 20:56 | 53.05523 | -1.16777 | 26247 ft | 430 kts | 350° |
| 2026-04-30 20:56 | 53.08473 | -1.17681 | 26245 ft | 430 kts | 350° |
| 2026-04-30 20:56 | 53.14352 | -1.19490 | 26235 ft | 430 kts | 349° |
| 2026-04-30 20:57 | 53.17301 | -1.20405 | 26233 ft | 430 kts | 350° |
| 2026-04-30 20:57 | 53.20242 | -1.21314 | 26231 ft | 430 kts | 350° |
| 2026-04-30 20:57 | 53.23184 | -1.22223 | 26231 ft | 430 kts | 350° |
| 2026-04-30 20:58 | 53.29072 | -1.24046 | 26229 ft | 431 kts | 350° |
| 2026-04-30 20:58 | 53.32017 | -1.24955 | 26232 ft | 430 kts | 350° |
| 2026-04-30 20:58 | 53.34966 | -1.25869 | 26237 ft | 430 kts | 350° |
| 2026-04-30 20:58 | 53.37907 | -1.26781 | 26236 ft | 430 kts | 350° |
| 2026-04-30 20:59 | 53.43820 | -1.28268 | 26234 ft | 430 kts | 356° |
| 2026-04-30 20:59 | 53.46802 | -1.28628 | 26239 ft | 430 kts | 356° |
| 2026-04-30 21:00 | 53.52764 | -1.29352 | 26243 ft | 430 kts | 356° |
| 2026-04-30 21:00 | 53.58661 | -1.30926 | 26254 ft | 430 kts | 341° |
| 2026-04-30 21:01 | 53.63992 | -1.35424 | 26263 ft | 429 kts | 327° |
| 2026-04-30 21:01 | 53.66543 | -1.38027 | 26264 ft | 429 kts | 327° |
| 2026-04-30 21:01 | 53.71659 | -1.43209 | 26267 ft | 428 kts | 327° |
| 2026-04-30 21:02 | 53.74212 | -1.45791 | 26271 ft | 428 kts | 327° |
| 2026-04-30 21:02 | 53.76769 | -1.48387 | 26276 ft | 429 kts | 327° |
| 2026-04-30 21:02 | 53.79326 | -1.50989 | 26281 ft | 429 kts | 327° |
| 2026-04-30 21:02 | 53.81874 | -1.53591 | 26285 ft | 428 kts | 327° |
| 2026-04-30 21:03 | 53.84430 | -1.56206 | 26282 ft | 428 kts | 327° |
| 2026-04-30 21:03 | 53.86882 | -1.58718 | 26280 ft | 434 kts | 327° |
| 2026-04-30 21:03 | 53.89512 | -1.61420 | 26276 ft | 448 kts | 327° |
| 2026-04-30 21:03 | 53.92185 | -1.64171 | 26274 ft | 450 kts | 327° |
| 2026-04-30 21:04 | 53.94864 | -1.66932 | 26274 ft | 451 kts | 327° |
| 2026-04-30 21:04 | 53.97546 | -1.69696 | 26272 ft | 451 kts | 327° |
| 2026-04-30 21:04 | 54.02903 | -1.75214 | 26269 ft | 450 kts | 327° |
| 2026-04-30 21:05 | 54.05580 | -1.77981 | 26271 ft | 450 kts | 327° |
| 2026-04-30 21:05 | 54.08253 | -1.80753 | 26270 ft | 450 kts | 327° |
| 2026-04-30 21:05 | 54.10954 | -1.83429 | 26264 ft | 451 kts | 333° |
| 2026-04-30 21:05 | 54.13920 | -1.85156 | 26272 ft | 451 kts | 349° |
| 2026-04-30 21:06 | 54.16970 | -1.85537 | 26272 ft | 439 kts | 5° |
| 2026-04-30 21:06 | 54.19937 | -1.84787 | 26201 ft | 425 kts | 12° |
| 2026-04-30 21:06 | 54.22823 | -1.83903 | 25926 ft | 420 kts | 12° |
| 2026-04-30 21:06 | 54.25685 | -1.83017 | 25540 ft | 418 kts | 12° |
| 2026-04-30 21:07 | 54.28540 | -1.82130 | 25151 ft | 416 kts | 12° |
| 2026-04-30 21:07 | 54.31376 | -1.81252 | 24776 ft | 413 kts | 12° |
| 2026-04-30 21:07 | 54.34205 | -1.80376 | 24394 ft | 411 kts | 12° |
| 2026-04-30 21:07 | 54.37007 | -1.79508 | 24023 ft | 409 kts | 12° |
| 2026-04-30 21:08 | 54.39788 | -1.78645 | 23573 ft | 400 kts | 12° |
| 2026-04-30 21:08 | 54.42498 | -1.77803 | 23255 ft | 395 kts | 12° |
| 2026-04-30 21:08 | 54.45184 | -1.76882 | 22979 ft | 390 kts | 19° |
| 2026-04-30 21:08 | 54.47526 | -1.74806 | 22708 ft | 373 kts | 45° |
| 2026-04-30 21:09 | 54.49190 | -1.71547 | 22447 ft | 356 kts | 63° |
| 2026-04-30 21:09 | 54.50236 | -1.67804 | 22184 ft | 341 kts | 77° |
| 2026-04-30 21:09 | 54.50734 | -1.63896 | 21921 ft | 328 kts | 91° |
| 2026-04-30 21:09 | 54.50693 | -1.60058 | 21644 ft | 315 kts | 104° |
| 2026-04-30 21:10 | 54.50131 | -1.56497 | 21388 ft | 304 kts | 117° |
| 2026-04-30 21:10 | 54.49116 | -1.53368 | 21055 ft | 297 kts | 130° |
| 2026-04-30 21:10 | 54.47748 | -1.50818 | 20927 ft | 284 kts | 142° |
| 2026-04-30 21:10 | 54.46155 | -1.48914 | 20786 ft | 274 kts | 154° |
| 2026-04-30 21:11 | 54.44429 | -1.47686 | 20646 ft | 266 kts | 165° |
| 2026-04-30 21:11 | 54.42628 | -1.47109 | 20391 ft | 263 kts | 175° |
| 2026-04-30 21:11 | 54.40803 | -1.47152 | 20091 ft | 262 kts | 184° |
| 2026-04-30 21:11 | 54.38981 | -1.47560 | 19591 ft | 270 kts | 187° |
| 2026-04-30 21:12 | 54.37104 | -1.48144 | 19110 ft | 277 kts | 189° |
| 2026-04-30 21:12 | 54.35208 | -1.48792 | 18754 ft | 278 kts | 189° |
| 2026-04-30 21:12 | 54.33315 | -1.49448 | 18418 ft | 278 kts | 189° |
| 2026-04-30 21:12 | 54.31417 | -1.50091 | 18067 ft | 277 kts | 189° |
| 2026-04-30 21:13 | 54.29515 | -1.50718 | 17520 ft | 283 kts | 189° |
| 2026-04-30 21:13 | 54.27589 | -1.51790 | 16803 ft | 298 kts | 202° |
| 2026-04-30 21:13 | 54.25793 | -1.53621 | 16373 ft | 303 kts | 214° |
| 2026-04-30 21:13 | 54.24262 | -1.56117 | 15992 ft | 306 kts | 228° |
| 2026-04-30 21:14 | 54.23222 | -1.59313 | 15671 ft | 312 kts | 247° |
| 2026-04-30 21:14 | 54.22930 | -1.63021 | 15340 ft | 320 kts | 270° |
| 2026-04-30 21:14 | 54.23533 | -1.66704 | 14997 ft | 329 kts | 295° |
| 2026-04-30 21:14 | 54.24993 | -1.69727 | 14654 ft | 334 kts | 321° |
| 2026-04-30 21:15 | 54.27067 | -1.71474 | 14302 ft | 335 kts | 347° |
| 2026-04-30 21:15 | 54.29379 | -1.71885 | 13889 ft | 335 kts | 358° |
| 2026-04-30 21:15 | 54.31706 | -1.72101 | 13501 ft | 334 kts | 358° |
| 2026-04-30 21:15 | 54.34027 | -1.72318 | 13046 ft | 336 kts | 358° |
| 2026-04-30 21:16 | 54.36370 | -1.72541 | 12608 ft | 337 kts | 358° |
| 2026-04-30 21:16 | 54.38703 | -1.72772 | 12303 ft | 334 kts | 357° |
| 2026-04-30 21:16 | 54.40999 | -1.73007 | 12269 ft | 336 kts | 357° |
| 2026-04-30 21:16 | 54.43327 | -1.73247 | 12274 ft | 334 kts | 357° |
| 2026-04-30 21:17 | 54.45603 | -1.73409 | 12275 ft | 327 kts | 1° |
| 2026-04-30 21:17 | 54.47941 | -1.73654 | 12314 ft | 341 kts | 352° |
| 2026-04-30 21:17 | 54.50260 | -1.74398 | 12165 ft | 336 kts | 347° |
| 2026-04-30 21:17 | 54.52513 | -1.75389 | 11810 ft | 331 kts | 344° |
| 2026-04-30 21:18 | 54.54695 | -1.76439 | 11465 ft | 322 kts | 344° |
| 2026-04-30 21:18 | 54.56857 | -1.77464 | 11097 ft | 322 kts | 345° |
| 2026-04-30 21:18 | 54.59012 | -1.78434 | 10614 ft | 318 kts | 345° |
| 2026-04-30 21:18 | 54.61147 | -1.79344 | 10134 ft | 313 kts | 346° |
| 2026-04-30 21:19 | 54.62569 | -1.79928 | 9807 ft | 308 kts | 346° |
| 2026-04-30 21:19 | 54.64370 | -1.80653 | 9489 ft | 299 kts | 347° |
| 2026-04-30 21:19 | 54.66368 | -1.81448 | 9126 ft | 289 kts | 347° |
| 2026-04-30 21:19 | 54.68296 | -1.82213 | 8769 ft | 280 kts | 347° |
| 2026-04-30 21:20 | 54.70172 | -1.82956 | 8414 ft | 275 kts | 347° |
| 2026-04-30 21:20 | 54.72033 | -1.83696 | 8064 ft | 274 kts | 347° |
| 2026-04-30 21:20 | 54.73897 | -1.84440 | 7714 ft | 273 kts | 347° |
| 2026-04-30 21:20 | 54.75725 | -1.85173 | 7372 ft | 266 kts | 346° |
| 2026-04-30 21:21 | 54.77481 | -1.85881 | 7037 ft | 259 kts | 346° |
| 2026-04-30 21:21 | 54.79200 | -1.86573 | 6769 ft | 248 kts | 346° |
| 2026-04-30 21:21 | 54.82535 | -1.87915 | 6031 ft | 244 kts | 347° |
| 2026-04-30 21:22 | 54.84191 | -1.88577 | 5687 ft | 244 kts | 346° |
| 2026-04-30 21:22 | 54.89156 | -1.90581 | 4635 ft | 244 kts | 347° |
| 2026-04-30 21:23 | 54.90809 | -1.91248 | 4274 ft | 243 kts | 347° |
| 2026-04-30 21:23 | 54.92453 | -1.91913 | 3924 ft | 242 kts | 347° |
| 2026-04-30 21:23 | 54.95741 | -1.92811 | 3215 ft | 238 kts | 12° |
| 2026-04-30 21:24 | 54.97206 | -1.91789 | 2970 ft | 226 kts | 41° |
| 2026-04-30 21:24 | 54.98220 | -1.89838 | 2733 ft | 206 kts | 69° |
| 2026-04-30 21:24 | 54.98820 | -1.87636 | 2461 ft | 196 kts | 73° |
| 2026-04-30 21:24 | 54.99374 | -1.85575 | 2203 ft | 180 kts | 73° |
| 2026-04-30 21:25 | 55.00368 | -1.81857 | 1748 ft | 153 kts | 73° |
| 2026-04-30 21:25 | 55.00797 | -1.80251 | 1535 ft | 141 kts | 73° |
| 2026-04-30 21:25 | 55.01204 | -1.78716 | 1349 ft | 139 kts | 72° |
| 2026-04-30 21:26 | 55.02009 | -1.75695 | 924 ft | 136 kts | 68° |
| 2026-04-30 21:26 | 55.02385 | -1.74209 | 671 ft | 133 kts | 70° |
| 2026-04-30 21:27 | 55.03127 | -1.71274 | 374 ft | 135 kts | 50° |
| 2026-04-30 21:27 | 55.03553 | -1.69881 | 272 ft | 119 kts | 67° |
| 2026-04-30 21:27 | 55.03839 | -1.68796 | 261 ft | 80 kts | 64° |
| 2026-04-30 21:28 | 55.04131 | -1.68224 | 256 ft | 23 kts | 353° |
| 2026-04-30 21:28 | 55.04131 | -1.68400 | 258 ft | 15 kts | 237° |
| 2026-04-30 21:28 | 55.04032 | -1.68770 | 262 ft | 19 kts | 246° |
| 2026-04-30 21:29 | 55.03976 | -1.68984 | 264 ft | 20 kts | 248° |
| 2026-04-30 21:29 | 55.03791 | -1.69753 | 270 ft | 26 kts | 256° |
| 2026-04-30 21:30 | 55.03778 | -1.70372 | 268 ft | 19 kts | 252° |
| 2026-04-30 21:31 | 55.03593 | -1.70672 | 275 ft | 11 kts | 276° |
| 2026-04-30 21:31 | 55.03661 | -1.70711 | 273 ft | 0 kts | 5° |